Time;durP1;ratioP1;P1;durP2;ratioP2;P2;SDS_P1;SDS_P2;PMS_P1;PMS_P2;Temp;Humidity;BMP_temperature;BMP_pressure;BME280_temperature;BME280_humidity;BME280_pressure;Samples;Min_cycle;Max_cycle;Signal;HPM_P1;HPM_P2
2022/05/01 00:01:48;;;;;;;2.80;2.60;;;16.40;60.40;;;;;;5030362;28;20467;-68
2022/05/01 00:04:16;;;;;;;3.27;3.00;;;16.40;60.40;;;;;;5026359;28;20447;-67
2022/05/01 00:06:46;;;;;;;2.90;2.70;;;16.40;60.40;;;;;;5030757;28;20881;-67
2022/05/01 00:09:14;;;;;;;3.27;2.80;;;16.40;60.40;;;;;;5031355;28;20787;-67
2022/05/01 00:11:42;;;;;;;2.43;2.23;;;16.40;60.40;;;;;;5021423;28;20499;-68
2022/05/01 00:14:10;;;;;;;2.80;2.60;;;16.40;60.40;;;;;;5030377;28;20490;-67
2022/05/01 00:16:38;;;;;;;3.07;2.83;;;16.40;60.40;;;;;;5030700;28;20503;-67
2022/05/01 00:19:08;;;;;;;2.67;2.47;;;16.40;60.40;;;;;;5018517;28;20856;-68
2022/05/01 00:21:36;;;;;;;3.63;2.90;;;16.40;60.40;;;;;;5030126;28;20558;-67
2022/05/01 00:24:07;;;;;;;3.50;2.83;;;16.40;60.40;;;;;;5031380;28;20428;-67
2022/05/01 00:26:35;;;;;;;2.60;2.40;;;16.40;60.40;;;;;;5031082;28;20479;-66
2022/05/01 00:29:04;;;;;;;2.63;2.43;;;16.40;60.40;;;;;;5026004;28;20806;-67
2022/05/01 00:31:33;;;;;;;2.67;2.47;;;16.40;60.50;;;;;;5034409;28;21023;-68
2022/05/01 00:36:46;;;;;;;3.00;2.80;;;16.40;60.40;;;;;;5034062;28;20468;-68
2022/05/01 00:39:16;;;;;;;2.40;2.23;;;16.40;60.40;;;;;;5034074;28;20448;-68
2022/05/01 00:41:45;;;;;;;2.70;2.50;;;16.40;60.40;;;;;;5022412;28;21055;-68
2022/05/01 00:44:14;;;;;;;3.60;2.83;;;16.40;60.50;;;;;;5033089;28;20464;-67
2022/05/01 00:46:44;;;;;;;3.70;2.93;;;16.40;60.50;;;;;;5033637;28;20517;-67
2022/05/01 00:49:15;;;;;;;3.57;3.20;;;16.40;60.50;;;;;;5018017;28;20441;-67
2022/05/01 00:51:47;;;;;;;3.73;3.30;;;16.40;60.50;;;;;;5033468;28;21008;-67
2022/05/01 00:54:18;;;;;;;4.40;3.03;;;16.40;60.50;;;;;;5033760;28;20436;-67
2022/05/01 00:56:51;;;;;;;3.00;2.80;;;16.40;60.50;;;;;;5030133;28;20487;-66
2022/05/01 00:59:22;;;;;;;2.93;2.73;;;16.40;60.50;;;;;;5033865;28;20467;-68
2022/05/01 01:01:52;;;;;;;3.00;2.70;;;16.30;60.40;;;;;;5033654;28;20463;-67
2022/05/01 01:04:21;;;;;;;3.20;3.00;;;16.40;60.50;;;;;;5033128;28;20444;-67
2022/05/01 01:06:49;;;;;;;3.40;3.13;;;16.30;60.40;;;;;;5033441;28;21099;-68
2022/05/01 01:09:19;;;;;;;3.30;3.00;;;16.30;60.50;;;;;;5033740;28;20446;-66
2022/05/01 01:11:47;;;;;;;3.50;3.20;;;16.30;60.50;;;;;;5031299;28;20468;-68
2022/05/01 01:14:36;;;;;;;3.70;3.23;;;16.30;60.70;;;;;;5017961;28;20518;-67
2022/05/01 01:17:05;;;;;;;3.30;3.00;;;16.30;60.80;;;;;;5032417;28;20433;-65
2022/05/01 01:19:33;;;;;;;2.67;2.47;;;16.30;60.80;;;;;;5014720;28;20436;-67
2022/05/01 01:22:04;;;;;;;3.17;2.97;;;16.30;61.00;;;;;;5033007;28;20475;-67
2022/05/01 01:24:34;;;;;;;3.90;3.07;;;16.30;60.80;;;;;;5032804;28;20445;-67
2022/05/01 01:27:03;;;;;;;5.17;3.57;;;16.30;60.70;;;;;;5033705;28;20420;-67
2022/05/01 01:32:18;;;;;;;3.40;3.10;;;16.30;61.00;;;;;;5033702;28;20421;-67
2022/05/01 01:34:50;;;;;;;2.97;2.50;;;16.30;61.00;;;;;;5017825;28;20862;-66
2022/05/01 01:37:23;;;;;;;2.87;2.63;;;16.30;60.90;;;;;;5013877;28;20527;-67
2022/05/01 01:39:52;;;;;;;2.93;2.47;;;16.30;61.00;;;;;;5012317;28;20984;-67
2022/05/01 01:42:22;;;;;;;3.23;2.97;;;16.30;61.00;;;;;;5013988;28;20496;-67
2022/05/01 01:44:53;;;;;;;2.57;2.37;;;16.30;62.40;;;;;;5030502;28;21032;-68
2022/05/01 01:47:21;;;;;;;3.07;2.83;;;16.30;61.00;;;;;;5033616;28;20906;-68
2022/05/01 01:49:49;;;;;;;3.70;3.40;;;16.30;61.20;;;;;;5025912;28;20453;-67
2022/05/01 01:52:17;;;;;;;3.27;2.70;;;16.30;61.20;;;;;;5013884;28;20803;-67
2022/05/01 01:54:46;;;;;;;3.10;2.90;;;16.20;61.20;;;;;;5012794;28;21412;-67
2022/05/01 01:57:14;;;;;;;4.60;3.13;;;16.20;61.20;;;;;;5026719;28;20466;-67
2022/05/01 01:59:42;;;;;;;3.20;3.00;;;16.20;61.20;;;;;;5032801;28;20436;-67
2022/05/01 02:02:11;;;;;;;3.30;3.10;;;16.20;61.20;;;;;;5031377;28;20517;-67
2022/05/01 02:04:39;;;;;;;2.60;2.40;;;16.20;61.30;;;;;;5017081;28;20472;-67
2022/05/01 02:07:07;;;;;;;3.00;2.80;;;16.20;61.30;;;;;;5024967;28;20502;-67
2022/05/01 02:09:37;;;;;;;3.30;3.10;;;16.20;61.40;;;;;;5031921;28;20420;-67
2022/05/01 02:12:09;;;;;;;4.03;3.30;;;16.20;61.70;;;;;;5023696;28;20490;-68
2022/05/01 02:14:37;;;;;;;3.23;2.97;;;16.20;61.20;;;;;;5031045;28;21023;-67
2022/05/01 02:17:05;;;;;;;3.20;2.90;;;16.20;61.20;;;;;;5032063;28;20934;-67
2022/05/01 02:19:33;;;;;;;2.97;2.67;;;16.20;61.30;;;;;;5023476;28;20587;-67
2022/05/01 02:22:01;;;;;;;2.97;2.77;;;16.20;61.30;;;;;;5030809;28;20434;-66
2022/05/01 02:24:30;;;;;;;3.27;3.07;;;16.20;61.40;;;;;;5021602;28;20542;-66
2022/05/01 02:26:58;;;;;;;3.47;3.17;;;16.20;61.40;;;;;;5021789;28;20432;-67
2022/05/01 02:29:28;;;;;;;2.93;2.73;;;16.20;61.40;;;;;;5031768;28;20501;-67
2022/05/01 02:31:56;;;;;;;3.80;3.50;;;16.20;61.40;;;;;;5030831;28;20464;-67
2022/05/01 02:34:25;;;;;;;2.80;2.60;;;16.20;61.40;;;;;;5030472;28;20991;-67
2022/05/01 02:36:53;;;;;;;3.20;3.00;;;16.20;61.50;;;;;;5032077;28;20457;-68
2022/05/01 02:39:24;;;;;;;3.00;2.80;;;16.20;61.50;;;;;;5030772;28;20521;-67
2022/05/01 02:41:52;;;;;;;2.87;2.67;;;16.20;61.40;;;;;;5023136;28;20468;-67
2022/05/01 02:44:20;;;;;;;3.07;2.77;;;16.10;61.50;;;;;;5031415;28;20482;-67
2022/05/01 02:46:50;;;;;;;2.53;2.33;;;16.10;61.40;;;;;;5031029;28;20543;-66
2022/05/01 02:49:19;;;;;;;3.40;3.20;;;16.10;61.50;;;;;;5029287;28;20452;-67
2022/05/01 02:51:47;;;;;;;3.07;2.77;;;16.10;61.60;;;;;;5031580;28;20507;-67
2022/05/01 02:54:15;;;;;;;3.03;2.80;;;16.20;61.50;;;;;;5031002;28;20982;-66
2022/05/01 02:56:43;;;;;;;2.80;2.60;;;16.10;61.50;;;;;;5019835;28;20475;-68
2022/05/01 02:59:11;;;;;;;2.93;2.63;;;16.10;61.60;;;;;;5032110;28;20436;-67
2022/05/01 03:01:40;;;;;;;3.10;2.73;;;16.10;61.70;;;;;;5031446;28;20897;-68
2022/05/01 03:04:09;;;;;;;3.80;3.40;;;16.10;61.60;;;;;;5026095;28;20467;-66
2022/05/01 03:06:39;;;;;;;2.87;2.67;;;16.20;61.80;;;;;;5022422;28;20535;-67
2022/05/01 03:09:08;;;;;;;2.70;2.50;;;16.10;61.70;;;;;;5032300;28;20505;-68
2022/05/01 03:11:36;;;;;;;2.90;2.70;;;16.10;61.70;;;;;;5021036;28;20826;-67
2022/05/01 03:14:09;;;;;;;3.43;3.13;;;16.10;61.60;;;;;;5031387;28;20439;-66
2022/05/01 03:16:37;;;;;;;3.20;3.00;;;16.10;61.80;;;;;;5031024;28;20472;-67
2022/05/01 03:24:38;;;;;;;3.70;2.77;;;16.10;61.90;;;;;;5030506;28;20842;-65
2022/05/01 03:27:07;;;;;;;3.73;3.03;;;16.10;61.90;;;;;;5030320;28;20519;-67
2022/05/01 03:29:36;;;;;;;3.20;3.00;;;16.00;61.70;;;;;;5031390;28;20934;-67
2022/05/01 03:32:07;;;;;;;3.50;3.20;;;16.00;61.70;;;;;;5032218;28;20440;-67
2022/05/01 03:34:37;;;;;;;3.80;2.97;;;16.00;61.80;;;;;;5011543;28;20469;-67
2022/05/01 03:37:07;;;;;;;4.10;3.70;;;16.00;61.80;;;;;;5012299;28;20432;-67
2022/05/01 03:39:36;;;;;;;2.83;2.63;;;16.00;62.00;;;;;;5011755;28;20417;-67
2022/05/01 03:42:05;;;;;;;3.50;3.10;;;16.00;62.00;;;;;;5011941;28;20417;-67
2022/05/01 03:44:34;;;;;;;2.80;2.60;;;16.00;61.90;;;;;;5029441;28;20464;-66
2022/05/01 03:47:02;;;;;;;3.00;2.80;;;16.00;62.00;;;;;;5031942;28;20503;-67
2022/05/01 03:49:30;;;;;;;3.50;3.20;;;16.00;61.90;;;;;;5012816;28;20445;-68
2022/05/01 03:51:58;;;;;;;3.40;3.17;;;16.00;62.00;;;;;;5011933;28;20980;-68
2022/05/01 03:54:27;;;;;;;2.80;2.60;;;16.00;62.10;;;;;;5011476;28;20891;-68
2022/05/01 03:56:56;;;;;;;3.20;3.00;;;16.00;62.00;;;;;;5011478;28;20943;-66
2022/05/01 03:59:24;;;;;;;3.40;3.10;;;16.00;62.10;;;;;;5019518;28;20953;-67
2022/05/01 04:01:52;;;;;;;2.93;2.73;;;16.00;62.00;;;;;;5035075;28;20543;-68
2022/05/01 04:04:20;;;;;;;3.03;2.80;;;16.00;62.20;;;;;;5032904;28;20475;-67
2022/05/01 04:06:48;;;;;;;2.93;2.73;;;16.00;62.10;;;;;;5034567;28;20468;-67
2022/05/01 04:09:16;;;;;;;3.37;2.87;;;16.00;62.30;;;;;;5035125;28;20799;-66
2022/05/01 04:11:46;;;;;;;3.13;2.83;;;16.00;62.20;;;;;;5020942;28;20492;-66
2022/05/01 04:14:14;;;;;;;2.93;2.60;;;16.00;62.20;;;;;;5031474;28;20976;-68
2022/05/01 04:16:42;;;;;;;2.83;2.63;;;15.90;62.20;;;;;;5034255;28;20846;-66
2022/05/01 04:19:11;;;;;;;3.70;3.33;;;15.90;62.10;;;;;;5034051;28;20942;-67
2022/05/01 04:21:42;;;;;;;3.77;3.23;;;15.90;62.10;;;;;;5034187;28;20992;-65
2022/05/01 04:24:10;;;;;;;3.43;3.13;;;15.90;62.20;;;;;;5034102;28;20470;-67
2022/05/01 04:26:38;;;;;;;3.40;3.13;;;15.90;62.10;;;;;;5032882;28;20518;-68
2022/05/01 04:31:53;;;;;;;3.63;3.37;;;15.90;62.20;;;;;;5034229;28;20492;-65
2022/05/01 04:34:21;;;;;;;2.73;2.53;;;15.90;62.30;;;;;;5024441;28;20598;-67
2022/05/01 04:36:49;;;;;;;3.47;3.17;;;15.90;62.30;;;;;;5034201;28;20467;-66
2022/05/01 04:39:17;;;;;;;3.17;2.77;;;15.90;62.30;;;;;;5034520;28;20444;-67
2022/05/01 04:41:45;;;;;;;2.57;2.37;;;15.90;62.40;;;;;;5028862;28;20491;-67
2022/05/01 04:44:15;;;;;;;3.17;2.97;;;15.90;62.40;;;;;;5033529;28;20505;-67
2022/05/01 04:46:43;;;;;;;3.47;3.17;;;15.90;62.40;;;;;;5034179;28;20459;-67
2022/05/01 04:49:12;;;;;;;3.60;2.70;;;15.90;62.40;;;;;;5025333;28;20448;-66
2022/05/01 04:51:40;;;;;;;3.63;3.33;;;15.90;62.50;;;;;;5026405;28;20475;-68
2022/05/01 04:54:08;;;;;;;3.00;2.80;;;15.90;62.40;;;;;;5033535;28;20432;-68
2022/05/01 04:59:38;;;;;;;2.73;2.53;;;15.80;62.40;;;;;;5000691;28;20480;-65
2022/05/01 05:02:06;;;;;;;2.77;2.60;;;15.80;62.40;;;;;;5012229;28;20429;-67
2022/05/01 05:04:35;;;;;;;3.33;3.03;;;15.80;63.80;;;;;;5009576;28;21029;-67
2022/05/01 05:07:04;;;;;;;3.00;2.80;;;15.80;62.40;;;;;;5026426;28;20439;-67
2022/05/01 05:12:20;;;;;;;3.73;3.13;;;15.80;62.40;;;;;;5025385;28;20433;-68
2022/05/01 05:14:51;;;;;;;2.80;2.60;;;15.80;62.50;;;;;;5032952;28;20526;-67
2022/05/01 05:17:20;;;;;;;3.07;2.87;;;15.80;62.60;;;;;;5034084;28;20834;-67
2022/05/01 05:19:49;;;;;;;3.07;2.87;;;15.80;62.60;;;;;;5021289;28;20515;-66
2022/05/01 05:22:17;;;;;;;2.83;2.63;;;15.80;62.60;;;;;;5033637;28;20440;-67
2022/05/01 05:24:45;;;;;;;2.80;2.60;;;15.80;62.50;;;;;;5030402;28;20546;-67
2022/05/01 05:27:14;;;;;;;3.00;2.80;;;15.80;62.60;;;;;;5014203;28;20923;-67
2022/05/01 05:29:42;;;;;;;3.13;2.93;;;15.80;62.60;;;;;;5023386;28;20627;-67
2022/05/01 05:32:12;;;;;;;3.10;2.80;;;15.80;62.70;;;;;;5033892;28;20424;-67
2022/05/01 05:34:40;;;;;;;2.97;2.77;;;15.80;62.60;;;;;;5018241;28;20515;-65
2022/05/01 05:37:08;;;;;;;3.03;2.73;;;15.80;62.60;;;;;;5013941;28;20453;-67
2022/05/01 05:39:36;;;;;;;3.40;2.97;;;15.80;62.70;;;;;;5013143;28;21033;-66
2022/05/01 05:42:06;;;;;;;2.90;2.63;;;15.80;62.70;;;;;;5025363;28;20480;-67
2022/05/01 05:44:34;;;;;;;3.47;3.17;;;15.80;62.70;;;;;;5033227;28;20472;-67
2022/05/01 05:47:02;;;;;;;4.17;3.73;;;15.80;62.70;;;;;;5033466;28;20428;-67
2022/05/01 05:49:32;;;;;;;3.80;3.20;;;15.80;62.70;;;;;;5028988;28;20492;-66
2022/05/01 05:52:01;;;;;;;3.10;2.90;;;15.80;62.60;;;;;;5032815;28;20869;-67
2022/05/01 05:54:29;;;;;;;3.17;2.97;;;15.80;62.70;;;;;;5032542;28;20505;-66
2022/05/01 05:56:57;;;;;;;3.17;2.87;;;15.70;62.60;;;;;;5021144;28;20486;-67
2022/05/01 05:59:25;;;;;;;3.30;3.00;;;15.80;62.80;;;;;;5033053;28;20424;-67
2022/05/01 06:01:53;;;;;;;3.10;2.80;;;15.70;62.70;;;;;;5031426;28;20511;-66
2022/05/01 06:04:22;;;;;;;4.97;3.20;;;15.70;62.70;;;;;;5024617;28;20483;-65
2022/05/01 06:06:51;;;;;;;3.57;3.00;;;15.70;62.70;;;;;;5032131;28;21720;-67
2022/05/01 06:09:19;;;;;;;3.97;3.57;;;15.70;62.70;;;;;;5032538;28;20574;-67
2022/05/01 06:11:47;;;;;;;3.87;3.57;;;15.70;62.60;;;;;;5028495;28;20488;-67
2022/05/01 06:14:15;;;;;;;3.60;3.30;;;15.70;62.60;;;;;;5032194;28;20486;-67
2022/05/01 06:16:43;;;;;;;3.80;3.50;;;15.70;62.60;;;;;;5032312;28;20457;-66
2022/05/01 06:19:11;;;;;;;4.13;3.73;;;15.70;62.60;;;;;;5029070;28;20451;-67
2022/05/01 06:21:39;;;;;;;3.60;3.27;;;15.70;62.60;;;;;;5029848;28;20479;-67
2022/05/01 06:24:09;;;;;;;3.40;3.07;;;15.70;62.60;;;;;;5032342;28;20811;-67
2022/05/01 06:26:37;;;;;;;4.03;3.73;;;15.70;62.60;;;;;;5031072;28;20475;-68
2022/05/01 06:29:05;;;;;;;3.10;2.90;;;15.70;62.50;;;;;;5032127;28;20830;-67
2022/05/01 06:31:34;;;;;;;4.90;4.30;;;15.70;62.60;;;;;;5031663;28;20471;-67
2022/05/01 06:34:02;;;;;;;3.90;3.60;;;15.70;62.60;;;;;;5031747;28;20518;-68
2022/05/01 06:36:30;;;;;;;3.53;3.23;;;15.70;62.40;;;;;;5031911;28;21001;-68
2022/05/01 06:38:59;;;;;;;3.53;3.23;;;15.70;62.40;;;;;;5032331;28;20849;-68
2022/05/01 06:41:29;;;;;;;3.90;3.40;;;15.70;62.40;;;;;;5030581;28;20479;-67
2022/05/01 06:43:57;;;;;;;3.50;3.20;;;15.70;62.40;;;;;;5032305;28;20440;-67
2022/05/01 06:46:25;;;;;;;4.00;3.60;;;15.70;62.30;;;;;;5031345;28;20485;-68
2022/05/01 06:48:53;;;;;;;3.37;3.07;;;15.70;62.30;;;;;;5026088;28;20440;-67
2022/05/01 06:51:22;;;;;;;3.80;3.50;;;15.70;62.30;;;;;;5031166;28;20503;-67
2022/05/01 06:53:50;;;;;;;5.07;4.57;;;15.70;62.30;;;;;;5020129;28;20432;-68
2022/05/01 06:56:18;;;;;;;3.60;3.30;;;15.70;62.20;;;;;;5026828;28;20483;-68
2022/05/01 06:58:47;;;;;;;3.97;3.67;;;15.70;62.20;;;;;;5030513;28;20523;-68
2022/05/01 07:01:15;;;;;;;4.77;4.30;;;15.70;62.10;;;;;;5031810;28;20885;-67
2022/05/01 07:03:46;;;;;;;3.40;2.73;;;15.70;62.00;;;;;;5031376;28;20443;-66
2022/05/01 07:06:14;;;;;;;4.27;3.87;;;15.70;62.00;;;;;;5022668;28;20986;-66
2022/05/01 07:08:43;;;;;;;3.57;3.27;;;15.80;62.00;;;;;;5031662;28;20826;-66
2022/05/01 07:11:11;;;;;;;3.73;3.43;;;15.80;62.00;;;;;;5021496;28;20530;-68
2022/05/01 07:13:40;;;;;;;3.20;2.93;;;15.80;61.90;;;;;;5031526;28;20950;-66
2022/05/01 07:16:09;;;;;;;3.30;3.07;;;15.80;61.90;;;;;;5031135;28;20475;-67
2022/05/01 07:18:38;;;;;;;4.43;3.63;;;15.80;62.00;;;;;;5020580;28;20448;-65
2022/05/01 07:21:06;;;;;;;3.73;2.80;;;15.80;61.80;;;;;;5028953;28;20460;-67
2022/05/01 07:23:34;;;;;;;2.87;2.67;;;15.80;61.80;;;;;;5031447;28;20930;-67
2022/05/01 07:26:02;;;;;;;3.57;3.27;;;15.80;61.80;;;;;;5026315;28;20472;-68
2022/05/01 07:28:30;;;;;;;3.40;3.10;;;15.80;61.70;;;;;;5032002;28;20428;-67
2022/05/01 07:30:58;;;;;;;4.23;3.83;;;15.90;61.80;;;;;;5031176;28;20475;-68
2022/05/01 07:33:27;;;;;;;2.97;2.77;;;15.90;61.80;;;;;;5030291;28;20520;-67
2022/05/01 07:35:57;;;;;;;3.03;2.73;;;15.80;61.70;;;;;;5029425;28;20463;-67
2022/05/01 07:38:25;;;;;;;3.20;3.00;;;15.80;61.60;;;;;;5031985;28;20420;-68
2022/05/01 07:40:54;;;;;;;3.87;3.57;;;15.90;61.70;;;;;;5019570;28;20480;-67
2022/05/01 07:43:22;;;;;;;2.90;2.70;;;15.90;61.70;;;;;;5030292;28;20490;-67
2022/05/01 07:45:50;;;;;;;3.03;2.83;;;15.90;61.70;;;;;;5030109;28;21047;-67
2022/05/01 07:48:20;;;;;;;3.60;3.10;;;15.80;61.60;;;;;;5031556;28;20428;-67
2022/05/01 07:50:49;;;;;;;3.03;2.80;;;15.80;61.50;;;;;;5015178;28;20824;-67
2022/05/01 07:53:17;;;;;;;3.43;3.23;;;15.90;61.70;;;;;;5012012;28;20858;-66
2022/05/01 07:55:45;;;;;;;3.63;3.33;;;15.80;61.50;;;;;;5017715;28;20534;-67
2022/05/01 07:58:14;;;;;;;2.83;2.63;;;15.80;61.50;;;;;;5029594;28;20428;-67
2022/05/01 08:00:45;;;;;;;4.03;3.70;;;15.90;61.70;;;;;;5030138;28;20519;-66
2022/05/01 08:06:00;;;;;;;2.93;2.63;;;15.90;61.70;;;;;;5029412;28;20525;-68
2022/05/01 08:08:33;;;;;;;3.40;3.10;;;15.90;61.60;;;;;;5031380;28;20439;-66
2022/05/01 08:11:01;;;;;;;3.37;3.10;;;15.90;61.70;;;;;;5018407;28;20846;-67
2022/05/01 08:13:29;;;;;;;2.93;2.73;;;15.90;61.60;;;;;;5011876;28;20422;-68
2022/05/01 08:15:57;;;;;;;3.43;3.13;;;15.90;61.60;;;;;;5021853;28;20463;-67
2022/05/01 08:21:12;;;;;;;4.57;3.23;;;15.90;61.70;;;;;;5023918;28;20479;-68
2022/05/01 08:23:42;;;;;;;3.50;3.20;;;15.90;61.70;;;;;;5030964;28;20486;-67
2022/05/01 08:26:13;;;;;;;2.77;2.57;;;15.90;61.70;;;;;;5016738;28;20477;-68
2022/05/01 08:28:43;;;;;;;3.07;2.87;;;15.90;61.70;;;;;;5015012;28;20440;-68
2022/05/01 08:31:11;;;;;;;3.17;2.97;;;15.90;61.70;;;;;;5030234;28;20472;-67
2022/05/01 08:33:40;;;;;;;3.23;3.03;;;15.90;61.70;;;;;;5024402;28;21041;-67
2022/05/01 08:36:08;;;;;;;3.13;2.87;;;15.90;61.60;;;;;;5025836;28;20464;-68
2022/05/01 08:38:37;;;;;;;3.50;3.27;;;15.90;61.70;;;;;;5030863;28;20960;-67
2022/05/01 08:41:06;;;;;;;3.40;3.10;;;15.90;61.70;;;;;;5029895;28;20486;-67
2022/05/01 08:43:35;;;;;;;3.97;3.67;;;15.90;61.60;;;;;;5029218;28;20440;-66
2022/05/01 08:46:26;;;;;;;4.20;3.80;;;15.90;61.70;;;;;;5031908;28;20479;-67
2022/05/01 08:49:00;;;;;;;3.13;2.93;;;15.90;61.70;;;;;;5031976;28;20954;-68
2022/05/01 08:51:32;;;;;;;8.03;6.70;;;15.90;61.70;;;;;;5032314;28;20476;-66
2022/05/01 08:54:04;;;;;;;8.80;8.00;;;15.90;61.00;;;;;;5033899;28;21828;-65
2022/05/01 08:56:33;;;;;;;9.87;7.77;;;16.00;60.00;;;;;;5031661;28;20475;-66
2022/05/01 08:59:02;;;;;;;9.60;8.03;;;16.00;60.00;;;;;;5034096;28;20953;-65
2022/05/01 09:01:31;;;;;;;7.60;6.80;;;16.10;60.10;;;;;;5034026;28;20476;-66
2022/05/01 09:04:00;;;;;;;9.53;7.50;;;16.10;60.10;;;;;;5024885;28;20453;-66
2022/05/01 09:06:29;;;;;;;9.13;8.23;;;16.10;60.10;;;;;;5033776;28;20502;-66
2022/05/01 09:08:58;;;;;;;9.60;8.40;;;16.00;60.00;;;;;;5032760;28;20452;-66
2022/05/01 09:14:12;;;;;;;8.30;7.53;;;15.90;59.90;;;;;;5030581;28;20443;-64
2022/05/01 09:16:41;;;;;;;7.70;7.00;;;15.90;59.90;;;;;;5033640;28;20464;-65
2022/05/01 09:19:09;;;;;;;8.27;6.47;;;15.90;59.40;;;;;;5032561;28;20451;-67
2022/05/01 09:21:51;;;;;;;11.93;8.40;;;15.90;59.30;;;;;;5033651;28;20468;-66
2022/05/01 09:24:27;;;;;;;8.40;7.60;;;15.90;58.60;;;;;;5032430;28;20997;-65
2022/05/01 09:26:58;;;;;;;9.47;8.47;;;15.80;58.30;;;;;;5014256;28;20472;-65
2022/05/01 09:29:31;;;;;;;7.87;7.07;;;15.80;59.20;;;;;;5033801;28;20448;-64
2022/05/01 09:32:01;;;;;;;10.07;8.60;;;15.80;59.80;;;;;;5033251;28;20452;-65
2022/05/01 09:34:31;;;;;;;6.73;5.90;;;15.80;59.40;;;;;;5019241;28;20559;-67
2022/05/01 09:37:02;;;;;;;11.20;8.63;;;15.80;59.80;;;;;;5016502;28;20862;-65
2022/05/01 09:39:32;;;;;;;7.67;5.70;;;15.80;59.50;;;;;;5014113;28;20416;-66
2022/05/01 09:42:16;;;;;;;7.87;6.80;;;15.70;59.80;;;;;;5017517;28;20509;-65
2022/05/01 09:44:44;;;;;;;10.10;9.10;;;15.70;58.30;;;;;;5012892;28;20823;-66
2022/05/01 09:47:34;;;;;;;9.80;8.90;;;15.70;57.80;;;;;;5018025;28;20869;-66
2022/05/01 09:50:04;;;;;;;11.27;9.70;;;15.70;58.00;;;;;;5025601;28;20588;-65
2022/05/01 09:52:55;;;;;;;9.13;8.30;;;15.60;57.30;;;;;;5033291;28;20428;-65
2022/05/01 09:55:23;;;;;;;10.40;8.60;;;15.70;58.70;;;;;;5024667;28;20491;-66
2022/05/01 09:58:08;;;;;;;10.70;9.17;;;15.60;58.10;;;;;;5021037;28;20429;-66
2022/05/01 10:00:38;;;;;;;6.70;6.07;;;15.70;59.10;;;;;;5032593;28;20532;-66
2022/05/01 10:03:29;;;;;;;7.73;6.93;;;15.70;58.50;;;;;;5029510;28;20440;-65
2022/05/01 10:05:59;;;;;;;6.80;6.20;;;15.70;59.70;;;;;;5019416;28;20538;-64
2022/05/01 10:08:27;;;;;;;8.60;7.67;;;15.70;59.70;;;;;;5033124;28;20443;-66
2022/05/01 10:10:58;;;;;;;8.40;7.50;;;15.70;59.40;;;;;;5030774;28;20525;-66
2022/05/01 10:13:28;;;;;;;9.97;7.77;;;15.70;58.40;;;;;;5032657;28;20432;-66
2022/05/01 10:16:08;;;;;;;11.07;8.93;;;15.70;58.40;;;;;;5032290;28;20877;-65
2022/05/01 10:18:39;;;;;;;9.10;8.23;;;15.70;58.30;;;;;;5029643;28;20455;-65
2022/05/01 10:21:29;;;;;;;8.77;7.87;;;15.70;58.50;;;;;;5026900;28;20480;-66
2022/05/01 10:23:57;;;;;;;7.50;6.70;;;15.70;58.40;;;;;;5032325;28;20437;-65
2022/05/01 10:26:29;;;;;;;9.00;8.23;;;15.70;58.40;;;;;;5016106;28;20461;-66
2022/05/01 10:29:32;;;;;;;10.40;9.33;;;15.70;58.10;;;;;;5025772;28;20527;-64
2022/05/01 10:32:22;;;;;;;11.83;9.40;;;15.60;58.10;;;;;;5032279;28;20467;-66
2022/05/01 10:35:29;;;;;;;10.70;9.60;;;15.70;57.30;;;;;;5022800;28;20478;-66
2022/05/01 10:38:16;;;;;;;7.90;7.10;;;15.70;56.90;;;;;;5021859;28;20439;-64
2022/05/01 10:40:49;;;;;;;8.50;7.67;;;15.70;57.20;;;;;;5021375;28;20471;-66
2022/05/01 10:43:27;;;;;;;12.53;9.37;;;15.70;55.90;;;;;;5017056;28;20502;-66
2022/05/01 10:45:59;;;;;;;10.10;9.20;;;15.70;56.20;;;;;;5031615;28;20534;-64
2022/05/01 10:48:38;;;;;;;8.00;7.20;;;15.70;55.90;;;;;;5028960;28;20464;-66
2022/05/01 10:51:52;;;;;;;9.07;8.37;;;15.70;56.70;;;;;;5012388;28;20464;-66
2022/05/01 10:54:37;;;;;;;8.80;7.83;;;15.80;55.80;;;;;;4996463;28;20444;-65
2022/05/01 10:57:15;;;;;;;8.90;8.00;;;15.80;55.60;;;;;;5013212;28;20447;-66
2022/05/01 10:59:48;;;;;;;8.07;7.27;;;15.80;54.70;;;;;;5030670;28;20439;-66
2022/05/01 11:02:35;;;;;;;11.33;9.00;;;15.80;55.90;;;;;;5031664;28;20432;-66
2022/05/01 11:05:04;;;;;;;12.90;11.60;;;15.80;55.30;;;;;;5030922;28;20466;-64
2022/05/01 11:07:35;;;;;;;10.57;9.57;;;15.80;53.60;;;;;;5031254;28;20529;-66
2022/05/01 11:10:06;;;;;;;12.80;10.50;;;15.80;55.00;;;;;;5028686;28;20457;-64
2022/05/01 11:12:36;;;;;;;10.80;9.50;;;15.90;53.50;;;;;;5032334;28;20771;-66
2022/05/01 11:15:06;;;;;;;10.23;9.00;;;15.90;54.00;;;;;;5031282;28;20478;-66
2022/05/01 11:17:54;;;;;;;10.37;9.37;;;15.90;54.50;;;;;;5030913;28;20443;-64
2022/05/01 11:20:29;;;;;;;10.63;8.40;;;15.90;53.90;;;;;;5022866;28;20517;-64
2022/05/01 11:22:58;;;;;;;10.30;8.83;;;15.90;54.20;;;;;;5031377;28;20431;-64
2022/05/01 11:25:38;;;;;;;11.90;10.70;;;15.90;54.80;;;;;;5022334;28;20555;-64
2022/05/01 11:28:07;;;;;;;11.47;10.27;;;15.90;53.50;;;;;;5026143;28;20464;-63
2022/05/01 11:30:36;;;;;;;10.97;9.90;;;16.00;54.40;;;;;;5030422;28;20464;-63
2022/05/01 11:33:08;;;;;;;10.10;8.93;;;16.00;53.80;;;;;;5028506;28;20428;-64
2022/05/01 11:35:52;;;;;;;9.57;8.60;;;16.00;54.00;;;;;;5016427;28;20542;-63
2022/05/01 11:38:22;;;;;;;11.00;9.53;;;16.00;53.70;;;;;;5018074;28;20760;-62
2022/05/01 11:40:55;;;;;;;18.93;10.43;;;16.00;53.90;;;;;;5022995;28;20881;-63
2022/05/01 11:43:23;;;;;;;10.83;9.77;;;16.00;53.70;;;;;;5020363;28;20942;-64
2022/05/01 11:45:52;;;;;;;11.77;8.53;;;16.00;53.00;;;;;;5030597;28;22520;-63
2022/05/01 11:48:22;;;;;;;9.43;8.53;;;16.00;54.20;;;;;;5030916;28;20463;-63
2022/05/01 11:50:52;;;;;;;9.97;9.07;;;16.00;53.70;;;;;;5011624;28;20472;-65
2022/05/01 11:53:22;;;;;;;9.03;8.30;;;16.00;53.80;;;;;;5025916;28;20513;-65
2022/05/01 12:04:27;;;;;;;10.60;9.13;;;16.00;54.00;;;;;;5026643;28;20444;-63
2022/05/01 12:07:00;;;;;;;8.63;7.50;;;16.10;54.50;;;;;;5011152;28;20457;-63
2022/05/01 12:09:30;;;;;;;9.00;8.10;;;16.10;53.90;;;;;;5011589;28;20480;-64
2022/05/01 12:11:58;;;;;;;12.03;10.83;;;16.10;54.10;;;;;;5022418;28;20497;-64
2022/05/01 12:14:26;;;;;;;11.10;9.70;;;16.10;52.80;;;;;;5031151;28;20898;-64
2022/05/01 12:16:54;;;;;;;12.33;11.03;;;16.10;52.90;;;;;;5029089;28;20873;-62
2022/05/01 12:19:36;;;;;;;12.10;10.07;;;16.10;52.40;;;;;;5031626;28;20828;-64
2022/05/01 12:22:05;;;;;;;11.60;9.57;;;16.10;52.60;;;;;;5034937;28;20861;-63
2022/05/01 12:24:33;;;;;;;10.63;9.50;;;16.10;53.50;;;;;;5033985;28;20509;-63
2022/05/01 12:27:02;;;;;;;8.77;7.87;;;16.10;53.20;;;;;;5033871;28;20455;-65
2022/05/01 12:29:30;;;;;;;11.70;10.50;;;16.10;53.50;;;;;;5034906;28;20796;-63
2022/05/01 12:32:07;;;;;;;10.17;8.77;;;16.10;52.10;;;;;;5033052;28;20555;-63
2022/05/01 12:34:39;;;;;;;9.50;8.53;;;16.20;53.20;;;;;;5016915;28;20475;-62
2022/05/01 12:37:12;;;;;;;10.90;9.90;;;16.20;52.50;;;;;;5034214;28;20930;-64
2022/05/01 12:39:40;;;;;;;8.73;7.83;;;16.20;52.10;;;;;;5031672;28;20432;-64
2022/05/01 12:45:14;;;;;;;10.63;9.67;;;16.20;52.80;;;;;;5033213;28;20490;-62
2022/05/01 12:47:43;;;;;;;10.63;9.53;;;16.20;51.70;;;;;;5033766;28;20897;-64
2022/05/01 12:50:27;;;;;;;11.17;10.20;;;16.20;51.10;;;;;;5033988;28;20509;-62
2022/05/01 12:52:59;;;;;;;11.27;9.97;;;16.20;51.30;;;;;;5034301;28;20798;-64
2022/05/01 12:55:32;;;;;;;12.53;11.37;;;16.30;52.50;;;;;;5024383;28;20511;-64
2022/05/01 12:58:02;;;;;;;9.60;8.67;;;16.20;51.40;;;;;;5019777;28;20450;-64
2022/05/01 13:00:41;;;;;;;10.87;9.77;;;16.30;52.10;;;;;;5033318;28;20458;-63
2022/05/01 13:03:20;;;;;;;12.90;11.67;;;16.30;50.70;;;;;;5029767;28;20472;-63
2022/05/01 13:05:59;;;;;;;13.90;11.90;;;16.30;50.30;;;;;;5026825;28;20837;-63
2022/05/01 13:08:30;;;;;;;12.03;10.70;;;16.20;50.40;;;;;;5033786;28;20456;-64
2022/05/01 13:11:12;;;;;;;13.87;12.53;;;16.20;50.10;;;;;;5028061;28;20475;-63
2022/05/01 13:13:51;;;;;;;10.90;9.80;;;16.20;50.10;;;;;;5032644;28;20487;-64
2022/05/01 13:16:22;;;;;;;11.20;10.10;;;16.20;51.70;;;;;;5033442;28;20468;-64
2022/05/01 13:18:53;;;;;;;11.00;9.90;;;16.20;50.90;;;;;;5022726;28;20445;-64
2022/05/01 13:21:25;;;;;;;12.10;10.90;;;16.20;51.50;;;;;;5031091;28;20826;-63
2022/05/01 13:23:57;;;;;;;12.67;10.73;;;16.30;50.90;;;;;;5020090;28;20444;-63
2022/05/01 13:26:32;;;;;;;12.50;11.30;;;16.30;50.50;;;;;;5028327;28;20890;-63
2022/05/01 13:29:00;;;;;;;11.70;10.70;;;16.30;49.80;;;;;;5033609;28;20449;-64
2022/05/01 13:31:28;;;;;;;12.43;11.23;;;16.30;50.80;;;;;;5032174;28;20467;-62
2022/05/01 13:33:56;;;;;;;11.80;10.67;;;16.30;51.20;;;;;;5031896;28;20444;-63
2022/05/01 13:36:26;;;;;;;10.90;9.80;;;16.30;51.80;;;;;;5028748;28;20472;-64
2022/05/01 13:38:54;;;;;;;11.17;9.80;;;16.30;51.70;;;;;;5028360;28;20432;-64
2022/05/01 13:47:08;;;;;;;12.53;10.23;;;16.40;51.10;;;;;;5027599;28;20459;-63